Time;durP1;ratioP1;P1;durP2;ratioP2;P2;SDS_P1;SDS_P2;PMS_P1;PMS_P2;Temp;Humidity;BMP_temperature;BMP_pressure;BME280_temperature;BME280_humidity;BME280_pressure;Samples;Min_cycle;Max_cycle;Signal;HPM_P1;HPM_P2
2022/10/08 00:02:18;;;;;;;;;;;;;;;-142.75;100.00;77099.84;5032616;28;19921;-68
2022/10/08 00:04:44;;;;;;;;;;;;;;;-142.75;100.00;77090.00;5033019;28;19913;-69
2022/10/08 00:07:09;;;;;;;;;;;;;;;-142.75;100.00;77090.00;5032732;28;20008;-69
2022/10/08 00:09:34;;;;;;;;;;;;;;;-142.75;100.00;77117.56;5032935;28;20434;-68
2022/10/08 00:11:59;;;;;;;;;;;;;;;-142.75;100.00;77121.50;5032964;28;19913;-69
2022/10/08 00:14:25;;;;;;;;;;;;;;;-142.75;100.00;77113.63;5032793;28;19913;-70
2022/10/08 00:16:50;;;;;;;;;;;;;;;-142.75;100.00;77115.59;5014751;28;20012;-68
2022/10/08 00:19:15;;;;;;;;;;;;;;;-142.75;100.00;77113.63;5032795;28;19912;-68
2022/10/08 00:21:42;;;;;;;;;;;;;;;-142.75;100.00;77109.69;5032886;28;19914;-68
2022/10/08 00:24:09;;;;;;;;;;;;;;;-142.75;100.00;77107.72;5014890;28;19936;-68
2022/10/08 00:26:35;;;;;;;;;;;;;;;-142.75;100.00;77109.69;5014690;28;20290;-69
2022/10/08 00:29:02;;;;;;;;;;;;;;;-142.75;100.00;77129.38;5032423;28;19917;-70
2022/10/08 00:31:37;;;;;;;;;;;;;;;-142.75;100.00;77115.59;5032593;28;19999;-68
2022/10/08 00:34:04;;;;;;;;;;;;;;;-142.75;100.00;77119.53;5032535;28;20003;-68
2022/10/08 00:36:30;;;;;;;;;;;;;;;-142.75;100.00;77117.56;5032483;28;19913;-71
2022/10/08 00:38:56;;;;;;;;;;;;;;;-142.75;100.00;77129.38;5014631;28;20375;-69
2022/10/08 00:41:23;;;;;;;;;;;;;;;-142.75;100.00;77131.34;5032452;28;19967;-68
2022/10/08 00:43:50;;;;;;;;;;;;;;;-142.75;100.00;77123.47;5032256;28;19917;-68
2022/10/08 00:46:15;;;;;;;;;;;;;;;-142.75;100.00;77129.38;5032372;28;19917;-68
2022/10/08 00:48:40;;;;;;;;;;;;;;;-142.75;100.00;77137.25;5032076;28;19963;-67
2022/10/08 00:51:06;;;;;;;;;;;;;;;-142.75;100.00;77143.16;5032366;28;19948;-68
2022/10/08 00:53:32;;;;;;;;;;;;;;;-142.75;100.00;77149.06;5032205;28;19920;-68
2022/10/08 00:55:58;;;;;;;;;;;;;;;-142.75;100.00;77143.16;5014607;28;19917;-69
2022/10/08 00:58:24;;;;;;;;;;;;;;;-142.75;100.00;77149.06;5031823;28;19913;-68
2022/10/08 01:00:50;;;;;;;;;;;;;;;-142.75;100.00;77153.00;5032341;28;20291;-69
2022/10/08 01:03:15;;;;;;;;;;;;;;;-142.75;100.00;77160.88;5014441;28;19913;-68
2022/10/08 01:05:55;;;;;;;;;;;;;;;-142.75;100.00;77137.25;5032228;28;19913;-69
2022/10/08 01:08:23;;;;;;;;;;;;;;;-142.75;100.00;77131.34;5031792;28;19920;-68
2022/10/08 01:11:04;;;;;;;;;;;;;;;-142.75;100.00;77139.22;5031999;28;19917;-68
2022/10/08 01:13:39;;;;;;;;;;;;;;;-142.75;100.00;77141.19;5032050;28;20322;-68
2022/10/08 01:16:14;;;;;;;;;;;;;;;-142.75;100.00;77139.22;5032127;28;19975;-69
2022/10/08 01:18:39;;;;;;;;;;;;;;;-142.75;100.00;77129.38;5031898;28;19956;-66
2022/10/08 01:21:11;;;;;;;;;;;;;;;-142.75;100.00;77133.31;5014233;28;19960;-68
2022/10/08 01:23:48;;;;;;;;;;;;;;;-142.75;100.00;77133.31;5031955;28;19921;-68
2022/10/08 01:26:21;;;;;;;;;;;;;;;-142.75;100.00;77154.97;5032003;28;20356;-69
2022/10/08 01:28:55;;;;;;;;;;;;;;;-142.75;100.00;77127.41;5031731;28;20330;-69
2022/10/08 01:31:29;;;;;;;;;;;;;;;-142.75;100.00;77133.31;5031919;28;20404;-69
2022/10/08 01:34:08;;;;;;;;;;;;;;;-142.75;100.00;77139.22;5031802;28;20530;-70
2022/10/08 01:36:45;;;;;;;;;;;;;;;-142.75;100.00;77139.22;5014038;28;19914;-67
2022/10/08 01:39:24;;;;;;;;;;;;;;;-142.75;100.00;77147.09;5031966;28;19920;-68
2022/10/08 01:41:55;;;;;;;;;;;;;;;-142.75;100.00;77143.16;5031539;28;20605;-69
2022/10/08 01:44:23;;;;;;;;;;;;;;;-142.75;100.00;77129.38;5033172;28;19916;-69
2022/10/08 01:46:50;;;;;;;;;;;;;;;-142.75;100.00;77123.47;5055208;28;19920;-69
2022/10/08 01:49:20;;;;;;;;;;;;;;;-142.75;100.00;77131.34;5055480;28;19924;-69
2022/10/08 01:51:50;;;;;;;;;;;;;;;-142.75;100.00;77147.09;5037595;28;19912;-68
2022/10/08 01:54:16;;;;;;;;;;;;;;;-142.75;100.00;77139.22;5055402;28;20389;-69
2022/10/08 01:56:42;;;;;;;;;;;;;;;-142.75;100.00;77149.06;5055002;28;19912;-68
2022/10/08 01:59:16;;;;;;;;;;;;;;;-142.75;100.00;77164.81;5055316;28;19919;-69
2022/10/08 02:01:49;;;;;;;;;;;;;;;-142.75;100.00;77154.97;5055270;28;19919;-69
2022/10/08 02:04:33;;;;;;;;;;;;;;;-142.75;100.00;77158.91;5055300;28;20497;-68
2022/10/08 02:07:06;;;;;;;;;;;;;;;-142.75;100.00;77160.88;5036973;28;19912;-68
2022/10/08 02:09:34;;;;;;;;;;;;;;;-142.75;100.00;77153.00;5055015;28;19923;-70
2022/10/08 02:11:59;;;;;;;;;;;;;;;-142.75;100.00;77158.91;5037183;28;19913;-68
2022/10/08 02:14:26;;;;;;;;;;;;;;;-142.75;100.00;77151.03;5054936;28;19920;-68
2022/10/08 02:17:07;;;;;;;;;;;;;;;-142.75;100.00;77158.91;5054789;28;19956;-68
2022/10/08 02:19:44;;;;;;;;;;;;;;;-142.75;100.00;77156.94;5054805;28;20008;-69
2022/10/08 02:22:12;;;;;;;;;;;;;;;-142.75;100.00;77156.94;5037009;28;19920;-69
2022/10/08 02:24:47;;;;;;;;;;;;;;;-142.75;100.00;77166.78;5054718;28;19916;-69
2022/10/08 02:27:13;;;;;;;;;;;;;;;-142.75;100.00;77176.63;5054491;28;19913;-68
2022/10/08 02:29:42;;;;;;;;;;;;;;;-142.75;100.00;77168.75;5054742;28;19964;-69
2022/10/08 02:32:19;;;;;;;;;;;;;;;-142.75;100.00;77166.78;5054701;28;19917;-68
2022/10/08 02:34:49;;;;;;;;;;;;;;;-142.75;100.00;77158.91;5054898;28;19913;-68
2022/10/08 02:37:18;;;;;;;;;;;;;;;-142.75;100.00;77156.94;5036453;28;20294;-68
2022/10/08 02:39:47;;;;;;;;;;;;;;;-142.75;100.00;77168.75;5054604;28;19912;-67
2022/10/08 02:42:16;;;;;;;;;;;;;;;-142.75;100.00;77174.66;5054513;28;19912;-68
2022/10/08 02:44:44;;;;;;;;;;;;;;;-142.75;100.00;77174.66;5054459;28;19916;-68
2022/10/08 02:47:12;;;;;;;;;;;;;;;-142.75;100.00;77176.63;5054309;28;20357;-69
2022/10/08 02:49:40;;;;;;;;;;;;;;;-142.75;100.00;77174.66;5054384;28;19927;-68
2022/10/08 02:52:07;;;;;;;;;;;;;;;-142.75;100.00;77172.69;5054521;28;19917;-68
2022/10/08 02:54:35;;;;;;;;;;;;;;;-142.75;100.00;77172.69;5036352;28;19999;-68
2022/10/08 02:57:04;;;;;;;;;;;;;;;-142.75;100.00;77166.78;5052723;28;19936;-68
2022/10/08 02:59:32;;;;;;;;;;;;;;;-142.75;100.00;77180.56;5054246;28;19913;-69
2022/10/08 03:01:58;;;;;;;;;;;;;;;-142.75;100.00;77188.44;5036311;28;19928;-69
2022/10/08 03:04:37;;;;;;;;;;;;;;;-142.75;100.00;77180.56;5054004;28;19913;-68
2022/10/08 03:07:03;;;;;;;;;;;;;;;-142.75;100.00;77188.44;5053788;28;19913;-68
2022/10/08 03:09:32;;;;;;;;;;;;;;;-142.75;100.00;77206.16;5053818;28;20454;-67
2022/10/08 03:11:58;;;;;;;;;;;;;;;-142.75;100.00;77208.13;5036074;28;19967;-68
2022/10/08 03:14:23;;;;;;;;;;;;;;;-142.75;100.00;77206.16;5053959;28;19920;-68
2022/10/08 03:16:49;;;;;;;;;;;;;;;-142.75;100.00;77204.19;5053651;28;19912;-68
2022/10/08 03:19:15;;;;;;;;;;;;;;;-142.75;100.00;77223.88;5053762;28;20378;-71
2022/10/08 03:21:41;;;;;;;;;;;;;;;-142.75;100.00;77227.81;5053757;28;19955;-70
2022/10/08 03:24:08;;;;;;;;;;;;;;;-142.75;100.00;77235.69;5054636;28;20020;-69
2022/10/08 03:26:33;;;;;;;;;;;;;;;-142.75;100.00;77235.69;5053388;28;19919;-68
2022/10/08 03:28:58;;;;;;;;;;;;;;;-142.75;100.00;77231.75;5053561;28;19917;-68
2022/10/08 03:31:23;;;;;;;;;;;;;;;-142.75;100.00;77239.63;5053628;28;19912;-68
2022/10/08 03:33:49;;;;;;;;;;;;;;;-142.75;100.00;77241.59;5053614;28;20338;-68
2022/10/08 03:36:14;;;;;;;;;;;;;;;-142.75;100.00;77241.59;5053504;28;19912;-68
2022/10/08 03:38:39;;;;;;;;;;;;;;;-142.75;100.00;77257.34;5053135;28;20366;-68
2022/10/08 03:41:04;;;;;;;;;;;;;;;-142.75;100.00;77267.19;5053330;28;20290;-68
2022/10/08 03:43:31;;;;;;;;;;;;;;;-142.75;100.00;77288.84;5035478;28;19919;-69
2022/10/08 03:45:56;;;;;;;;;;;;;;;-142.75;100.00;77298.69;5053234;28;19919;-69
2022/10/08 03:48:22;;;;;;;;;;;;;;;-142.75;100.00;77302.63;5052908;28;19913;-68
2022/10/08 03:50:55;;;;;;;;;;;;;;;-142.75;100.00;77306.56;5035349;28;19992;-69
2022/10/08 03:53:21;;;;;;;;;;;;;;;-142.75;100.00;77314.44;5053018;28;20418;-68
2022/10/08 03:55:46;;;;;;;;;;;;;;;-142.75;100.00;77314.44;5035177;28;19955;-68
2022/10/08 03:58:11;;;;;;;;;;;;;;;-142.75;100.00;77322.31;5052822;28;19913;-69
2022/10/08 04:00:36;;;;;;;;;;;;;;;-142.75;100.00;77312.47;5052951;28;19935;-68
2022/10/08 04:03:02;;;;;;;;;;;;;;;-142.75;100.00;77308.53;5052865;28;19939;-68
2022/10/08 04:05:27;;;;;;;;;;;;;;;-142.75;100.00;77314.44;5052855;28;20019;-66
2022/10/08 04:07:52;;;;;;;;;;;;;;;-142.75;100.00;77304.59;5034213;28;19912;-69
2022/10/08 04:10:17;;;;;;;;;;;;;;;-142.75;100.00;77306.56;5052695;28;19963;-69
2022/10/08 04:12:42;;;;;;;;;;;;;;;-142.75;100.00;77328.22;5052741;28;20401;-68
2022/10/08 04:15:08;;;;;;;;;;;;;;;-142.75;100.00;77312.47;5034792;28;19917;-69
2022/10/08 04:17:33;;;;;;;;;;;;;;;-142.75;100.00;77310.50;5052363;28;19944;-69
2022/10/08 04:19:58;;;;;;;;;;;;;;;-142.75;100.00;77308.53;5052680;28;19928;-68
2022/10/08 04:22:23;;;;;;;;;;;;;;;-142.75;100.00;77302.63;5034687;28;19913;-68
2022/10/08 04:24:48;;;;;;;;;;;;;;;-142.75;100.00;77308.53;5052389;28;19917;-68
2022/10/08 04:27:14;;;;;;;;;;;;;;;-142.75;100.00;77312.47;5052238;28;19912;-69
2022/10/08 04:29:39;;;;;;;;;;;;;;;-142.75;100.00;77334.13;5052432;28;19971;-68
2022/10/08 04:32:04;;;;;;;;;;;;;;;-142.75;100.00;77334.13;5034589;28;19917;-69
2022/10/08 04:34:29;;;;;;;;;;;;;;;-142.75;100.00;77343.97;5034480;28;20371;-69
2022/10/08 04:36:55;;;;;;;;;;;;;;;-142.75;100.00;77351.84;5052061;28;19958;-69
2022/10/08 04:39:20;;;;;;;;;;;;;;;-142.75;100.00;77369.56;5052256;28;19913;-69
2022/10/08 04:41:45;;;;;;;;;;;;;;;-142.75;100.00;77373.50;5052306;28;19912;-69
2022/10/08 04:44:10;;;;;;;;;;;;;;;-142.75;100.00;77367.59;5034314;28;19935;-69
2022/10/08 04:46:35;;;;;;;;;;;;;;;-142.75;100.00;77357.75;5051982;28;19912;-65
2022/10/08 04:49:01;;;;;;;;;;;;;;;-142.75;100.00;77367.59;5052119;28;20406;-69
2022/10/08 04:51:26;;;;;;;;;;;;;;;-142.75;100.00;77367.59;5052206;28;19917;-69
2022/10/08 04:53:52;;;;;;;;;;;;;;;-142.75;100.00;77369.56;5034121;28;19912;-68
2022/10/08 04:56:19;;;;;;;;;;;;;;;-142.75;100.00;77389.25;5052123;28;19920;-69
2022/10/08 04:58:44;;;;;;;;;;;;;;;-142.75;100.00;77406.97;5051869;28;20434;-68
2022/10/08 05:01:11;;;;;;;;;;;;;;;-142.75;100.00;77405.00;5052104;28;19999;-69
2022/10/08 05:03:37;;;;;;;;;;;;;;;-142.75;100.00;77416.81;5051993;28;20298;-68
2022/10/08 05:06:02;;;;;;;;;;;;;;;-142.75;100.00;77414.84;5052055;28;20279;-68
2022/10/08 05:08:28;;;;;;;;;;;;;;;-142.75;100.00;77418.78;5051566;28;20064;-69
2022/10/08 05:10:53;;;;;;;;;;;;;;;-142.75;100.00;77424.69;5052036;28;19913;-69
2022/10/08 05:13:18;;;;;;;;;;;;;;;-142.75;100.00;77401.06;5034075;28;19916;-70
2022/10/08 05:15:43;;;;;;;;;;;;;;;-142.75;100.00;77416.81;5051954;28;19913;-68
2022/10/08 05:18:08;;;;;;;;;;;;;;;-142.75;100.00;77408.94;5051650;28;19935;-69
2022/10/08 05:20:34;;;;;;;;;;;;;;;-142.75;100.00;77416.81;5054055;28;20008;-68
2022/10/08 05:23:00;;;;;;;;;;;;;;;-142.75;100.00;77405.00;5055879;28;19919;-69
2022/10/08 05:25:25;;;;;;;;;;;;;;;-142.75;100.00;77426.66;5055773;28;19917;-69
2022/10/08 05:27:50;;;;;;;;;;;;;;;-142.75;100.00;77424.69;5055630;28;19912;-69
2022/10/08 05:30:15;;;;;;;;;;;;;;;-142.75;100.00;77436.50;5037598;28;20007;-69
2022/10/08 05:32:40;;;;;;;;;;;;;;;-142.75;100.00;77436.50;5055316;28;20297;-68
2022/10/08 05:35:06;;;;;;;;;;;;;;;-142.75;100.00;77434.53;5055000;28;19959;-68
2022/10/08 05:37:32;;;;;;;;;;;;;;;-142.75;100.00;77440.44;5054033;28;19975;-67
2022/10/08 05:39:57;;;;;;;;;;;;;;;-142.75;100.00;77460.13;5055183;28;19920;-68
2022/10/08 05:42:22;;;;;;;;;;;;;;;-142.75;100.00;77458.16;5055111;28;19913;-69
2022/10/08 05:44:47;;;;;;;;;;;;;;;-142.75;100.00;77464.09;5054225;28;19921;-68
2022/10/08 05:47:13;;;;;;;;;;;;;;;-142.75;100.00;77464.09;5054699;28;19913;-69
2022/10/08 05:49:38;;;;;;;;;;;;;;;-142.75;100.00;77479.84;5037070;28;19921;-68
2022/10/08 05:52:03;;;;;;;;;;;;;;;-142.75;100.00;77471.97;5052255;28;19924;-68
2022/10/08 05:54:28;;;;;;;;;;;;;;;-142.75;100.00;77499.53;5054849;28;20447;-68
2022/10/08 05:56:53;;;;;;;;;;;;;;;-142.75;100.00;77493.63;5054527;28;19927;-70
2022/10/08 05:59:22;;;;;;;;;;;;;;;-142.75;100.00;77507.41;5045827;28;19939;-68
2022/10/08 06:01:48;;;;;;;;;;;;;;;-142.75;100.00;77511.34;5017502;28;19923;-68
2022/10/08 06:04:13;;;;;;;;;;;;;;;-142.75;100.00;77509.38;5035013;28;19917;-69
2022/10/08 06:06:39;;;;;;;;;;;;;;;-142.75;100.00;77515.28;5017082;28;19940;-68
2022/10/08 06:09:05;;;;;;;;;;;;;;;-142.75;100.00;77523.16;5035150;28;19924;-68
2022/10/08 06:11:32;;;;;;;;;;;;;;;-142.75;100.00;77531.03;5035089;28;19913;-68
2022/10/08 06:13:58;;;;;;;;;;;;;;;-142.75;100.00;77525.13;5035043;28;20003;-68
2022/10/08 06:16:24;;;;;;;;;;;;;;;-142.75;100.00;77533.00;5034990;28;19913;-66
2022/10/08 06:18:49;;;;;;;;;;;;;;;-142.75;100.00;77529.06;5034814;28;19913;-68
2022/10/08 06:21:16;;;;;;;;;;;;;;;-142.75;100.00;77515.28;5034877;28;20396;-70
2022/10/08 06:23:48;;;;;;;;;;;;;;;-142.75;100.00;77501.50;5034611;28;19921;-68
2022/10/08 06:26:14;;;;;;;;;;;;;;;-142.75;100.00;77495.59;5035001;28;19913;-68
2022/10/08 06:28:39;;;;;;;;;;;;;;;-142.75;100.00;77487.72;5034442;28;19958;-68
2022/10/08 06:31:06;;;;;;;;;;;;;;;-142.75;100.00;77475.91;5034506;28;19920;-68
2022/10/08 06:33:31;;;;;;;;;;;;;;;-142.75;100.00;77460.13;5017004;28;19913;-69
2022/10/08 06:36:01;;;;;;;;;;;;;;;-142.75;100.00;77448.34;5034695;28;19967;-69
2022/10/08 06:38:26;;;;;;;;;;;;;;;-142.75;100.00;77432.56;5034506;28;19913;-70
2022/10/08 06:40:51;;;;;;;;;;;;;;;-142.75;100.00;77410.91;5016711;28;20469;-69
2022/10/08 06:43:17;;;;;;;;;;;;;;;-142.75;100.00;77393.19;5034461;28;19920;-68
2022/10/08 06:45:43;;;;;;;;;;;;;;;-142.75;100.00;77371.53;5034300;28;19975;-68
2022/10/08 06:48:09;;;;;;;;;;;;;;;-142.75;100.00;77357.75;5022188;28;20326;-68
2022/10/08 06:50:34;;;;;;;;;;;;;;;-142.75;100.00;77332.16;5036025;28;19963;-68
2022/10/08 06:53:00;;;;;;;;;;;;;;;-142.75;100.00;77345.94;5048188;28;20268;-69
2022/10/08 06:55:25;;;;;;;;;;;;;;;-142.75;100.00;77343.97;5050824;28;21333;-69
2022/10/08 06:57:50;;;;;;;;;;;;;;;-142.75;100.00;77363.66;5053536;28;20011;-68
2022/10/08 07:00:15;;;;;;;;;;;;;;;-142.75;100.00;77361.69;5047195;28;19916;-69
2022/10/08 07:02:40;;;;;;;;;;;;;;;-142.75;100.00;77342.00;5052061;28;20298;-68
2022/10/08 07:05:06;;;;;;;;;;;;;;;-142.75;100.00;77322.31;5053300;28;20011;-71
2022/10/08 07:07:31;;;;;;;;;;;;;;;-142.75;100.00;77334.13;5048107;28;20534;-69
2022/10/08 07:09:56;;;;;;;;;;;;;;;-142.75;100.00;77312.47;5053608;28;19916;-69
2022/10/08 07:12:21;;;;;;;;;;;;;;;-142.75;100.00;77298.69;5046794;28;19913;-68
2022/10/08 07:14:47;;;;;;;;;;;;;;;-142.75;100.00;77275.06;5053439;28;19913;-68
2022/10/08 07:17:12;;;;;;;;;;;;;;;-142.75;100.00;77231.75;5046646;28;19912;-69
2022/10/08 07:19:37;;;;;;;;;;;;;;;-142.75;100.00;77208.13;5050537;28;19923;-69
2022/10/08 07:22:02;;;;;;;;;;;;;;;-142.75;100.00;77178.59;5027690;28;20009;-69
2022/10/08 07:24:27;;;;;;;;;;;;;;;-142.75;100.00;77172.69;5050662;28;19928;-69
2022/10/08 07:26:53;;;;;;;;;;;;;;;-142.75;100.00;77168.75;5046880;28;20003;-69
2022/10/08 07:29:18;;;;;;;;;;;;;;;-142.75;100.00;77141.19;5042980;28;20298;-69
2022/10/08 07:31:43;;;;;;;;;;;;;;;-142.75;100.00;77113.63;5053298;28;19958;-69
2022/10/08 07:34:10;;;;;;;;;;;;;;;-142.75;100.00;77113.63;5032879;28;19923;-69
2022/10/08 07:36:35;;;;;;;;;;;;;;;-142.75;100.00;77078.19;5052567;28;19916;-67
2022/10/08 07:39:02;;;;;;;;;;;;;;;-142.75;100.00;77107.72;5045017;28;19966;-70
2022/10/08 07:41:28;;;;;;;;;;;;;;;-142.75;100.00;77082.13;5040267;28;20421;-70
2022/10/08 07:43:57;;;;;;;;;;;;;;;-142.75;100.00;77064.41;5036280;28;20027;-69
2022/10/08 07:46:22;;;;;;;;;;;;;;;-142.75;100.00;77042.75;5033302;28;19967;-68
2022/10/08 07:48:47;;;;;;;;;;;;;;;-142.75;100.00;77023.06;5014789;28;19920;-69
2022/10/08 07:51:16;;;;;;;;;;;;;;;-142.75;100.00;77034.88;5033947;28;20326;-69
2022/10/08 07:53:42;;;;;;;;;;;;;;;-142.75;100.00;77013.22;5034116;28;20393;-68
2022/10/08 07:56:08;;;;;;;;;;;;;;;-142.75;100.00;76975.81;5052194;28;19952;-71
2022/10/08 07:58:34;;;;;;;;;;;;;;;-142.75;100.00;76967.94;5025715;28;19988;-69
2022/10/08 08:01:00;;;;;;;;;;;;;;;-142.75;100.00;76964.00;5051836;28;19919;-69
2022/10/08 08:03:25;;;;;;;;;;;;;;;-142.75;100.00;76952.19;5049595;28;19952;-68
2022/10/08 08:05:52;;;;;;;;;;;;;;;-142.75;100.00;76952.19;5049805;28;20006;-69
2022/10/08 08:08:18;;;;;;;;;;;;;;;-142.75;100.00;76944.31;5051817;28;19916;-68
2022/10/08 08:10:43;;;;;;;;;;;;;;;-142.75;100.00;76922.66;5043592;28;19928;-68
2022/10/08 08:13:08;;;;;;;;;;;;;;;-142.75;100.00;76954.16;5050004;28;19935;-69
2022/10/08 08:15:33;;;;;;;;;;;;;;;-142.75;100.00;76906.91;5046733;28;19913;-68
2022/10/08 08:17:59;;;;;;;;;;;;;;;-142.75;100.00;76908.88;5031101;28;20003;-71
2022/10/08 08:20:24;;;;;;;;;;;;;;;-142.75;100.00;76901.00;5051462;28;19947;-69
2022/10/08 08:22:49;;;;;;;;;;;;;;;-142.75;100.00;76889.19;5048202;28;20378;-72
2022/10/08 08:25:14;;;;;;;;;;;;;;;-142.75;100.00;76849.81;5050486;28;19916;-69
2022/10/08 08:27:39;;;;;;;;;;;;;;;-142.75;100.00;76849.81;5042704;28;19964;-70
2022/10/08 08:30:05;;;;;;;;;;;;;;;-142.75;100.00;76841.94;5033708;28;20422;-69
2022/10/08 08:32:30;;;;;;;;;;;;;;;-142.75;100.00;76818.31;5032404;28;19917;-67
2022/10/08 08:34:56;;;;;;;;;;;;;;;-142.75;100.00;76814.38;5032096;28;19920;-69
2022/10/08 08:37:21;;;;;;;;;;;;;;;-142.75;100.00;76812.41;5032453;28;19913;-69
2022/10/08 08:39:47;;;;;;;;;;;;;;;-142.75;100.00;76778.97;5032176;28;20155;-70
2022/10/08 08:42:26;;;;;;;;;;;;;;;-142.75;100.00;76729.75;5031816;28;19924;-70
2022/10/08 08:44:57;;;;;;;;;;;;;;;-142.75;100.00;76763.22;5032663;28;19945;-70
2022/10/08 08:47:22;;;;;;;;;;;;;;;-142.75;100.00;76788.81;5049260;28;19916;-70
2022/10/08 08:49:51;;;;;;;;;;;;;;;-142.75;100.00;76800.63;5050887;28;19927;-70
2022/10/08 08:52:18;;;;;;;;;;;;;;;-142.75;100.00;76782.91;5030910;28;20386;-69
2022/10/08 08:54:48;;;;;;;;;;;;;;;-142.75;100.00;76792.75;5037099;28;19913;-69
2022/10/08 08:57:24;;;;;;;;;;;;;;;-142.75;100.00;76814.38;5037822;28;19940;-69
2022/10/08 08:59:53;;;;;;;;;;;;;;;-142.75;100.00;76794.69;5042433;28;19917;-72
2022/10/08 09:02:24;;;;;;;;;;;;;;;-142.75;100.00;76771.09;5051234;28;19917;-70
2022/10/08 09:04:52;;;;;;;;;;;;;;;-142.75;100.00;76719.91;5048365;28;19920;-68
2022/10/08 09:07:19;;;;;;;;;;;;;;;-142.75;100.00;76745.50;5041267;28;20513;-69
2022/10/08 09:09:50;;;;;;;;;;;;;;;-142.75;100.00;76714.00;5034250;28;19964;-70
2022/10/08 09:12:21;;;;;;;;;;;;;;;-142.75;100.00;76696.28;5026906;28;19912;-70
2022/10/08 09:14:53;;;;;;;;;;;;;;;-142.75;100.00;76698.25;5051760;28;20389;-70
2022/10/08 09:17:39;;;;;;;;;;;;;;;-142.75;100.00;76700.22;5046566;28;20629;-72
2022/10/08 09:20:04;;;;;;;;;;;;;;;-142.75;100.00;76700.22;5042472;28;19923;-69
2022/10/08 09:22:33;;;;;;;;;;;;;;;-142.75;100.00;76692.34;5033628;28;20003;-67
2022/10/08 09:25:00;;;;;;;;;;;;;;;-142.75;100.00;76706.13;5050314;28;20386;-69
2022/10/08 09:27:45;;;;;;;;;;;;;;;-142.75;100.00;76794.69;5033712;28;19913;-69
2022/10/08 09:30:23;;;;;;;;;;;;;;;-142.75;100.00;76869.50;5020926;28;19924;-68
2022/10/08 09:32:48;;;;;;;;;;;;;;;-142.75;100.00;76975.81;5050953;28;19928;-69
2022/10/08 09:35:14;;;;;;;;;;;;;;;-142.75;100.00;77015.19;5033486;28;20394;-68
2022/10/08 09:37:44;;;;;;;;;;;;;;;-142.75;100.00;76944.31;5033089;28;19951;-69
2022/10/08 09:40:12;;;;;;;;;;;;;;;-142.75;100.00;76897.06;5051433;28;19967;-69
2022/10/08 09:42:37;;;;;;;;;;;;;;;-142.75;100.00;76849.81;5051031;28;19917;-69
2022/10/08 09:45:22;;;;;;;;;;;;;;;-142.75;100.00;76820.28;5050260;28;20400;-69
2022/10/08 09:48:07;;;;;;;;;;;;;;;-142.75;100.00;76802.56;5051015;28;19913;-70
2022/10/08 09:50:35;;;;;;;;;;;;;;;-142.75;100.00;76861.63;5051268;28;19943;-69
2022/10/08 09:53:00;;;;;;;;;;;;;;;-142.75;100.00;76834.06;5051711;28;19917;-69
2022/10/08 09:55:30;;;;;;;;;;;;;;;-142.75;100.00;76790.78;5033125;28;20310;-69
2022/10/08 09:57:59;;;;;;;;;;;;;;;-142.75;100.00;76743.53;5032756;28;20437;-69
2022/10/08 10:00:34;;;;;;;;;;;;;;;-142.75;100.00;76715.97;5031452;28;20327;-69
2022/10/08 10:03:00;;;;;;;;;;;;;;;-142.75;100.00;76684.47;5031334;28;19936;-68
2022/10/08 10:05:27;;;;;;;;;;;;;;;-142.75;99.46;76684.47;5031547;28;19960;-69
2022/10/08 10:07:53;;;;;;;;;;;;;;;-142.75;98.65;76694.31;5034725;28;19940;-70
2022/10/08 10:10:18;;;;;;;;;;;;;;;-142.75;100.00;76690.38;5034819;28;19925;-68
2022/10/08 10:12:47;;;;;;;;;;;;;;;-142.75;97.53;76639.19;5034965;28;19992;-69
2022/10/08 10:15:18;;;;;;;;;;;;;;;-142.75;94.02;76601.78;5034884;28;20287;-68
2022/10/08 10:17:43;;;;;;;;;;;;;;;-142.75;92.21;76625.41;5016813;28;19913;-69
2022/10/08 10:20:14;;;;;;;;;;;;;;;-142.75;92.23;76562.41;5017037;28;19913;-68
2022/10/08 10:22:50;;;;;;;;;;;;;;;-142.75;83.39;76564.38;5034865;28;19913;-70
2022/10/08 10:25:42;;;;;;;;;;;;;;;-142.75;83.96;76574.22;5034543;28;20413;-70
2022/10/08 10:28:14;;;;;;;;;;;;;;;-142.75;86.92;76686.44;5031364;28;19995;-70
2022/10/08 10:30:49;;;;;;;;;;;;;;;-142.75;92.26;76755.34;5034545;28;19924;-69
2022/10/08 10:33:19;;;;;;;;;;;;;;;-142.75;92.79;76704.16;5016808;28;19913;-70
2022/10/08 10:35:49;;;;;;;;;;;;;;;-142.75;90.67;76662.81;5016967;28;20394;-68
2022/10/08 10:38:19;;;;;;;;;;;;;;;-142.75;89.89;76625.41;5028285;28;19924;-69
2022/10/08 10:40:49;;;;;;;;;;;;;;;-142.75;89.04;76582.09;5054290;28;19912;-70
2022/10/08 10:43:20;;;;;;;;;;;;;;;-142.75;83.12;76546.66;5051544;28;19919;-69
2022/10/08 10:45:49;;;;;;;;;;;;;;;-142.75;83.62;76542.72;5034388;28;19924;-70
2022/10/08 10:48:14;;;;;;;;;;;;;;;-142.75;82.19;76554.53;5033549;28;19966;-67
2022/10/08 10:50:44;;;;;;;;;;;;;;;-142.75;86.95;76688.41;5053822;28;19920;-71
2022/10/08 10:53:09;;;;;;;;;;;;;;;-142.75;91.31;76664.78;5053825;28;19912;-69
2022/10/08 10:55:34;;;;;;;;;;;;;;;-142.75;89.81;76603.75;5054021;28;20547;-70
2022/10/08 10:58:18;;;;;;;;;;;;;;;-142.75;84.43;76560.44;5053764;28;19913;-70
2022/10/08 11:00:53;;;;;;;;;;;;;;;-142.75;82.45;76491.56;5034993;28;19952;-69
2022/10/08 11:03:27;;;;;;;;;;;;;;;-142.75;80.98;76540.75;5052010;28;20409;-69
2022/10/08 11:06:03;;;;;;;;;;;;;;;-142.75;80.17;76566.34;5051004;28;20414;-70
2022/10/08 11:08:42;;;;;;;;;;;;;;;-142.75;81.17;76527.00;5053387;28;19917;-71
2022/10/08 11:11:16;;;;;;;;;;;;;;;-142.75;79.14;76527.00;5035948;28;20495;-69
2022/10/08 11:13:54;;;;;;;;;;;;;;;-142.75;79.48;76631.31;5051946;28;19916;-67
2022/10/08 11:16:46;;;;;;;;;;;;;;;-142.75;85.82;76715.97;5033571;28;19920;-70
2022/10/08 11:19:20;;;;;;;;;;;;;;;-142.75;88.54;76767.16;5051933;28;19939;-70
2022/10/08 11:21:46;;;;;;;;;;;;;;;-142.75;83.51;76692.34;5031366;28;19913;-70
2022/10/08 11:24:26;;;;;;;;;;;;;;;-142.75;79.99;76658.88;5053579;28;20377;-70
2022/10/08 11:26:51;;;;;;;;;;;;;;;-142.75;77.92;76662.81;5033445;28;19919;-70
2022/10/08 11:29:28;;;;;;;;;;;;;;;-142.75;79.62;76741.56;5053647;28;19916;-69
2022/10/08 11:31:53;;;;;;;;;;;;;;;-142.75;81.42;76798.66;5053225;28;19919;-69
2022/10/08 11:34:21;;;;;;;;;;;;;;;-142.75;77.57;76761.25;5035655;28;19913;-70
2022/10/08 11:36:46;;;;;;;;;;;;;;;-142.75;78.38;76710.06;5053238;28;20378;-69
2022/10/08 11:39:11;;;;;;;;;;;;;;;-142.75;75.60;76731.72;5037589;28;20007;-69
2022/10/08 11:41:41;;;;;;;;;;;;;;;-142.75;74.86;76723.84;5015566;28;19921;-71
2022/10/08 11:44:09;;;;;;;;;;;;;;;-142.75;77.51;76767.16;5032734;28;19963;-69
2022/10/08 11:46:35;;;;;;;;;;;;;;;-142.75;80.26;76763.22;5051300;28;19923;-70
2022/10/08 11:49:00;;;;;;;;;;;;;;;-142.75;79.89;76784.88;5051543;28;19921;-70
2022/10/08 11:51:26;;;;;;;;;;;;;;;-142.75;80.54;76877.38;5053136;28;20424;-70
2022/10/08 11:54:13;;;;;;;;;;;;;;;-142.75;86.57;76948.25;5035290;28;19913;-69
2022/10/08 11:56:41;;;;;;;;;;;;;;;-142.75;85.17;76851.78;5052681;28;19939;-69
2022/10/08 11:59:17;;;;;;;;;;;;;;;-142.75;86.50;76751.41;5035070;28;20008;-70
2022/10/08 12:01:53;;;;;;;;;;;;;;;-142.75;82.07;76694.31;5035132;28;19912;-70
2022/10/08 12:04:20;;;;;;;;;;;;;;;-142.75;79.10;76645.09;5052784;28;20291;-69
2022/10/08 12:06:46;;;;;;;;;;;;;;;-142.75;78.15;76660.84;5052537;28;20438;-70
2022/10/08 12:09:22;;;;;;;;;;;;;;;-142.75;80.54;76670.69;5034307;28;19917;-70
2022/10/08 12:11:48;;;;;;;;;;;;;;;-142.75;76.71;76623.44;5052750;28;19920;-69
2022/10/08 12:14:14;;;;;;;;;;;;;;;-142.75;75.09;76593.91;5052626;28;19927;-69
2022/10/08 12:16:54;;;;;;;;;;;;;;;-142.75;74.82;76593.91;5052503;28;20417;-70
2022/10/08 12:19:34;;;;;;;;;;;;;;;-142.75;72.64;76562.41;5052618;28;19913;-70
2022/10/08 12:22:00;;;;;;;;;;;;;;;-142.75;73.37;76574.22;5052530;28;20371;-70
2022/10/08 12:24:37;;;;;;;;;;;;;;;-142.75;70.71;76586.03;5052418;28;19932;-70